sensor_id;sensor_type;location;lat;lon;timestamp;P1;durP1;ratioP1;P2;durP2;ratioP2
68800;SDS011;55784;50.734;7.086;2023-04-24T00:00:54;2.40;;;0.52;;
68800;SDS011;55784;50.734;7.086;2023-04-24T00:03:21;2.17;;;0.50;;
68800;SDS011;55784;50.734;7.086;2023-04-24T00:05:49;3.10;;;0.43;;
68800;SDS011;55784;50.734;7.086;2023-04-24T00:08:16;2.00;;;0.40;;
68800;SDS011;55784;50.734;7.086;2023-04-24T00:10:41;2.30;;;0.40;;
68800;SDS011;55784;50.734;7.086;2023-04-24T00:13:07;2.33;;;0.40;;
68800;SDS011;55784;50.734;7.086;2023-04-24T00:15:33;1.90;;;0.38;;
68800;SDS011;55784;50.734;7.086;2023-04-24T00:17:58;2.13;;;0.30;;
68800;SDS011;55784;50.734;7.086;2023-04-24T00:20:23;2.90;;;0.50;;
68800;SDS011;55784;50.734;7.086;2023-04-24T00:22:49;2.97;;;0.50;;
68800;SDS011;55784;50.734;7.086;2023-04-24T00:25:14;2.33;;;0.40;;
68800;SDS011;55784;50.734;7.086;2023-04-24T00:27:39;1.87;;;0.40;;
68800;SDS011;55784;50.734;7.086;2023-04-24T00:30:05;1.20;;;0.30;;
68800;SDS011;55784;50.734;7.086;2023-04-24T00:32:31;1.88;;;0.40;;
68800;SDS011;55784;50.734;7.086;2023-04-24T00:34:56;2.23;;;0.50;;
68800;SDS011;55784;50.734;7.086;2023-04-24T00:37:21;3.53;;;0.75;;
68800;SDS011;55784;50.734;7.086;2023-04-24T00:39:47;1.37;;;0.40;;
68800;SDS011;55784;50.734;7.086;2023-04-24T00:42:12;1.33;;;0.30;;
68800;SDS011;55784;50.734;7.086;2023-04-24T00:44:37;2.03;;;0.50;;
68800;SDS011;55784;50.734;7.086;2023-04-24T00:47:03;1.87;;;0.50;;
68800;SDS011;55784;50.734;7.086;2023-04-24T00:49:28;1.20;;;0.30;;
68800;SDS011;55784;50.734;7.086;2023-04-24T00:51:54;1.87;;;0.40;;
68800;SDS011;55784;50.734;7.086;2023-04-24T00:54:19;2.93;;;0.40;;
68800;SDS011;55784;50.734;7.086;2023-04-24T00:56:45;1.90;;;0.37;;
68800;SDS011;55784;50.734;7.086;2023-04-24T00:59:11;2.65;;;0.45;;
68800;SDS011;55784;50.734;7.086;2023-04-24T01:01:37;1.40;;;0.38;;
68800;SDS011;55784;50.734;7.086;2023-04-24T01:04:07;1.27;;;0.30;;
68800;SDS011;55784;50.734;7.086;2023-04-24T01:06:33;2.40;;;0.50;;
68800;SDS011;55784;50.734;7.086;2023-04-24T01:08:59;2.33;;;0.43;;
68800;SDS011;55784;50.734;7.086;2023-04-24T01:11:25;1.53;;;0.30;;
68800;SDS011;55784;50.734;7.086;2023-04-24T01:13:51;1.15;;;0.30;;
68800;SDS011;55784;50.734;7.086;2023-04-24T01:16:16;1.30;;;0.30;;
68800;SDS011;55784;50.734;7.086;2023-04-24T01:18:42;1.65;;;0.40;;
68800;SDS011;55784;50.734;7.086;2023-04-24T01:21:09;1.63;;;0.30;;
68800;SDS011;55784;50.734;7.086;2023-04-24T01:23:35;2.07;;;0.43;;
68800;SDS011;55784;50.734;7.086;2023-04-24T01:26:00;3.42;;;0.50;;
68800;SDS011;55784;50.734;7.086;2023-04-24T01:28:26;2.53;;;0.53;;
68800;SDS011;55784;50.734;7.086;2023-04-24T01:30:51;2.77;;;0.67;;
68800;SDS011;55784;50.734;7.086;2023-04-24T01:33:17;4.35;;;0.73;;
68800;SDS011;55784;50.734;7.086;2023-04-24T01:35:43;3.43;;;0.80;;
68800;SDS011;55784;50.734;7.086;2023-04-24T01:38:08;3.50;;;0.90;;
68800;SDS011;55784;50.734;7.086;2023-04-24T01:40:34;4.90;;;0.90;;
68800;SDS011;55784;50.734;7.086;2023-04-24T01:42:59;4.27;;;0.93;;
68800;SDS011;55784;50.734;7.086;2023-04-24T01:45:25;3.40;;;0.90;;
68800;SDS011;55784;50.734;7.086;2023-04-24T01:47:51;4.30;;;1.00;;
68800;SDS011;55784;50.734;7.086;2023-04-24T01:50:17;4.47;;;1.00;;
68800;SDS011;55784;50.734;7.086;2023-04-24T01:52:43;3.87;;;0.90;;
68800;SDS011;55784;50.734;7.086;2023-04-24T01:55:09;4.22;;;0.90;;
68800;SDS011;55784;50.734;7.086;2023-04-24T01:57:35;4.20;;;0.90;;
68800;SDS011;55784;50.734;7.086;2023-04-24T02:00:00;4.23;;;1.00;;
68800;SDS011;55784;50.734;7.086;2023-04-24T02:02:26;5.18;;;1.00;;
68800;SDS011;55784;50.734;7.086;2023-04-24T02:04:54;3.73;;;0.93;;
68800;SDS011;55784;50.734;7.086;2023-04-24T02:07:20;4.63;;;1.00;;
68800;SDS011;55784;50.734;7.086;2023-04-24T02:09:46;4.43;;;1.13;;
68800;SDS011;55784;50.734;7.086;2023-04-24T02:12:11;4.63;;;1.30;;
68800;SDS011;55784;50.734;7.086;2023-04-24T02:14:36;4.60;;;1.27;;
68800;SDS011;55784;50.734;7.086;2023-04-24T02:17:02;5.10;;;1.40;;
68800;SDS011;55784;50.734;7.086;2023-04-24T02:19:27;5.10;;;1.50;;
68800;SDS011;55784;50.734;7.086;2023-04-24T02:21:53;5.87;;;1.60;;
68800;SDS011;55784;50.734;7.086;2023-04-24T02:34:13;6.10;;;1.92;;
68800;SDS011;55784;50.734;7.086;2023-04-24T02:36:39;6.60;;;2.07;;
68800;SDS011;55784;50.734;7.086;2023-04-24T02:39:04;6.37;;;2.10;;
68800;SDS011;55784;50.734;7.086;2023-04-24T02:41:30;6.57;;;2.30;;
68800;SDS011;55784;50.734;7.086;2023-04-24T02:43:57;6.18;;;2.20;;
68800;SDS011;55784;50.734;7.086;2023-04-24T02:46:23;6.00;;;2.05;;
68800;SDS011;55784;50.734;7.086;2023-04-24T02:48:48;7.07;;;2.20;;
68800;SDS011;55784;50.734;7.086;2023-04-24T02:51:14;6.57;;;2.43;;
68800;SDS011;55784;50.734;7.086;2023-04-24T02:53:39;6.28;;;2.30;;
68800;SDS011;55784;50.734;7.086;2023-04-24T02:56:05;7.30;;;2.28;;
68800;SDS011;55784;50.734;7.086;2023-04-24T02:58:30;6.73;;;2.50;;
68800;SDS011;55784;50.734;7.086;2023-04-24T03:00:55;7.13;;;2.40;;
68800;SDS011;55784;50.734;7.086;2023-04-24T03:03:21;7.53;;;2.20;;
68800;SDS011;55784;50.734;7.086;2023-04-24T03:05:47;6.82;;;2.15;;
68800;SDS011;55784;50.734;7.086;2023-04-24T03:08:12;7.43;;;2.60;;
68800;SDS011;55784;50.734;7.086;2023-04-24T03:10:37;7.57;;;2.63;;
68800;SDS011;55784;50.734;7.086;2023-04-24T03:13:03;7.40;;;2.50;;
68800;SDS011;55784;50.734;7.086;2023-04-24T03:15:28;8.35;;;2.83;;
68800;SDS011;55784;50.734;7.086;2023-04-24T03:17:54;8.38;;;2.60;;
68800;SDS011;55784;50.734;7.086;2023-04-24T03:20:20;7.32;;;2.70;;
68800;SDS011;55784;50.734;7.086;2023-04-24T03:22:45;9.73;;;3.13;;
68800;SDS011;55784;50.734;7.086;2023-04-24T03:25:10;7.60;;;2.90;;
68800;SDS011;55784;50.734;7.086;2023-04-24T03:27:36;9.10;;;3.10;;
68800;SDS011;55784;50.734;7.086;2023-04-24T03:30:01;7.93;;;2.77;;
68800;SDS011;55784;50.734;7.086;2023-04-24T03:32:27;7.80;;;2.78;;
68800;SDS011;55784;50.734;7.086;2023-04-24T03:34:52;7.63;;;3.00;;
68800;SDS011;55784;50.734;7.086;2023-04-24T03:37:18;7.43;;;2.90;;
68800;SDS011;55784;50.734;7.086;2023-04-24T03:39:43;9.38;;;2.80;;
68800;SDS011;55784;50.734;7.086;2023-04-24T03:42:09;8.10;;;3.10;;
68800;SDS011;55784;50.734;7.086;2023-04-24T03:44:35;7.20;;;2.70;;
68800;SDS011;55784;50.734;7.086;2023-04-24T03:47:00;8.35;;;2.90;;
68800;SDS011;55784;50.734;7.086;2023-04-24T03:49:26;7.72;;;3.00;;
68800;SDS011;55784;50.734;7.086;2023-04-24T03:51:51;7.43;;;2.83;;
68800;SDS011;55784;50.734;7.086;2023-04-24T03:54:17;8.80;;;3.43;;
68800;SDS011;55784;50.734;7.086;2023-04-24T03:56:43;7.72;;;3.00;;
68800;SDS011;55784;50.734;7.086;2023-04-24T03:59:08;8.73;;;3.10;;
68800;SDS011;55784;50.734;7.086;2023-04-24T04:01:34;9.70;;;3.00;;
68800;SDS011;55784;50.734;7.086;2023-04-24T04:04:02;7.68;;;3.00;;
68800;SDS011;55784;50.734;7.086;2023-04-24T04:06:33;7.65;;;2.95;;
68800;SDS011;55784;50.734;7.086;2023-04-24T04:08:59;8.63;;;3.25;;
68800;SDS011;55784;50.734;7.086;2023-04-24T04:11:25;7.23;;;2.80;;
68800;SDS011;55784;50.734;7.086;2023-04-24T04:13:50;7.67;;;2.83;;
68800;SDS011;55784;50.734;7.086;2023-04-24T04:16:16;8.43;;;2.55;;
68800;SDS011;55784;50.734;7.086;2023-04-24T04:18:44;9.13;;;2.80;;
68800;SDS011;55784;50.734;7.086;2023-04-24T04:21:10;8.20;;;3.35;;
68800;SDS011;55784;50.734;7.086;2023-04-24T04:23:35;7.38;;;2.75;;
68800;SDS011;55784;50.734;7.086;2023-04-24T04:26:01;10.02;;;2.65;;
68800;SDS011;55784;50.734;7.086;2023-04-24T04:28:28;7.67;;;2.70;;
68800;SDS011;55784;50.734;7.086;2023-04-24T04:30:53;10.30;;;3.13;;
68800;SDS011;55784;50.734;7.086;2023-04-24T04:33:19;7.93;;;2.72;;
68800;SDS011;55784;50.734;7.086;2023-04-24T04:35:45;9.75;;;3.05;;
68800;SDS011;55784;50.734;7.086;2023-04-24T04:38:13;9.60;;;3.13;;
68800;SDS011;55784;50.734;7.086;2023-04-24T04:40:40;7.97;;;2.75;;
68800;SDS011;55784;50.734;7.086;2023-04-24T04:43:05;7.97;;;2.85;;
68800;SDS011;55784;50.734;7.086;2023-04-24T04:45:31;7.72;;;2.70;;
68800;SDS011;55784;50.734;7.086;2023-04-24T04:47:57;8.13;;;2.92;;
68800;SDS011;55784;50.734;7.086;2023-04-24T04:50:25;8.95;;;3.30;;
68800;SDS011;55784;50.734;7.086;2023-04-24T04:52:51;8.52;;;2.85;;
68800;SDS011;55784;50.734;7.086;2023-04-24T04:55:17;9.55;;;3.42;;
68800;SDS011;55784;50.734;7.086;2023-04-24T04:57:43;8.82;;;3.35;;
68800;SDS011;55784;50.734;7.086;2023-04-24T05:00:08;7.90;;;2.95;;
68800;SDS011;55784;50.734;7.086;2023-04-24T05:02:35;9.77;;;3.27;;
68800;SDS011;55784;50.734;7.086;2023-04-24T05:05:01;8.83;;;3.27;;
68800;SDS011;55784;50.734;7.086;2023-04-24T05:07:26;8.20;;;2.90;;
68800;SDS011;55784;50.734;7.086;2023-04-24T05:09:51;7.70;;;2.73;;
68800;SDS011;55784;50.734;7.086;2023-04-24T05:12:17;8.63;;;2.93;;
68800;SDS011;55784;50.734;7.086;2023-04-24T05:14:42;8.00;;;3.00;;
68800;SDS011;55784;50.734;7.086;2023-04-24T05:17:07;7.57;;;2.60;;
68800;SDS011;55784;50.734;7.086;2023-04-24T05:19:33;9.68;;;3.10;;
68800;SDS011;55784;50.734;7.086;2023-04-24T05:22:00;8.02;;;2.70;;
68800;SDS011;55784;50.734;7.086;2023-04-24T05:24:28;7.75;;;2.60;;
68800;SDS011;55784;50.734;7.086;2023-04-24T05:26:53;7.85;;;2.67;;
68800;SDS011;55784;50.734;7.086;2023-04-24T05:29:18;8.88;;;2.80;;
68800;SDS011;55784;50.734;7.086;2023-04-24T05:31:44;6.97;;;2.50;;
68800;SDS011;55784;50.734;7.086;2023-04-24T05:34:09;7.23;;;2.80;;
68800;SDS011;55784;50.734;7.086;2023-04-24T05:36:35;9.57;;;3.07;;
68800;SDS011;55784;50.734;7.086;2023-04-24T05:39:00;6.93;;;2.70;;
68800;SDS011;55784;50.734;7.086;2023-04-24T05:41:25;7.90;;;2.92;;
68800;SDS011;55784;50.734;7.086;2023-04-24T05:43:51;8.93;;;3.00;;
68800;SDS011;55784;50.734;7.086;2023-04-24T05:46:16;9.57;;;3.03;;
68800;SDS011;55784;50.734;7.086;2023-04-24T05:48:42;9.83;;;3.27;;
68800;SDS011;55784;50.734;7.086;2023-04-24T05:51:08;8.02;;;2.85;;
68800;SDS011;55784;50.734;7.086;2023-04-24T05:53:34;8.70;;;3.10;;
68800;SDS011;55784;50.734;7.086;2023-04-24T05:56:00;8.23;;;3.45;;
68800;SDS011;55784;50.734;7.086;2023-04-24T05:58:25;8.77;;;3.00;;
68800;SDS011;55784;50.734;7.086;2023-04-24T06:00:51;8.10;;;2.80;;
68800;SDS011;55784;50.734;7.086;2023-04-24T06:03:16;9.73;;;3.20;;
68800;SDS011;55784;50.734;7.086;2023-04-24T06:05:42;8.38;;;3.13;;
68800;SDS011;55784;50.734;7.086;2023-04-24T06:08:57;8.97;;;3.47;;
68800;SDS011;55784;50.734;7.086;2023-04-24T06:11:56;7.97;;;2.88;;
68800;SDS011;55784;50.734;7.086;2023-04-24T06:14:47;8.98;;;3.38;;
68800;SDS011;55784;50.734;7.086;2023-04-24T06:31:06;10.27;;;3.50;;
68800;SDS011;55784;50.734;7.086;2023-04-24T06:36:48;8.43;;;3.03;;
68800;SDS011;55784;50.734;7.086;2023-04-24T06:39:51;8.67;;;3.00;;
68800;SDS011;55784;50.734;7.086;2023-04-24T06:42:43;9.65;;;3.00;;
68800;SDS011;55784;50.734;7.086;2023-04-24T06:45:09;7.32;;;2.83;;
68800;SDS011;55784;50.734;7.086;2023-04-24T06:47:59;8.48;;;2.90;;
68800;SDS011;55784;50.734;7.086;2023-04-24T06:50:37;8.05;;;2.78;;
68800;SDS011;55784;50.734;7.086;2023-04-24T06:53:10;7.03;;;2.67;;
68800;SDS011;55784;50.734;7.086;2023-04-24T06:59:02;8.38;;;2.50;;
68800;SDS011;55784;50.734;7.086;2023-04-24T07:12:15;6.20;;;1.90;;
68800;SDS011;55784;50.734;7.086;2023-04-24T07:15:13;6.18;;;2.00;;
68800;SDS011;55784;50.734;7.086;2023-04-24T07:25:57;6.05;;;1.80;;
68800;SDS011;55784;50.734;7.086;2023-04-24T07:28:23;6.05;;;1.60;;
68800;SDS011;55784;50.734;7.086;2023-04-24T07:30:49;5.65;;;1.70;;
68800;SDS011;55784;50.734;7.086;2023-04-24T07:33:15;6.57;;;2.00;;
68800;SDS011;55784;50.734;7.086;2023-04-24T07:35:43;4.68;;;1.30;;
68800;SDS011;55784;50.734;7.086;2023-04-24T07:52:30;5.15;;;1.33;;
68800;SDS011;55784;50.734;7.086;2023-04-24T08:16:17;2.45;;;0.50;;
68800;SDS011;55784;50.734;7.086;2023-04-24T08:19:02;3.47;;;0.70;;
68800;SDS011;55784;50.734;7.086;2023-04-24T08:21:27;3.97;;;0.70;;
68800;SDS011;55784;50.734;7.086;2023-04-24T08:23:53;3.70;;;0.77;;
68800;SDS011;55784;50.734;7.086;2023-04-24T08:26:18;3.05;;;0.70;;
68800;SDS011;55784;50.734;7.086;2023-04-24T08:28:44;3.22;;;0.70;;
68800;SDS011;55784;50.734;7.086;2023-04-24T08:31:12;3.53;;;0.88;;
68800;SDS011;55784;50.734;7.086;2023-04-24T08:33:39;4.97;;;0.90;;
68800;SDS011;55784;50.734;7.086;2023-04-24T08:36:06;4.35;;;0.90;;
68800;SDS011;55784;50.734;7.086;2023-04-24T08:38:32;5.30;;;0.80;;
68800;SDS011;55784;50.734;7.086;2023-04-24T08:41:00;4.00;;;0.90;;
68800;SDS011;55784;50.734;7.086;2023-04-24T08:43:27;5.20;;;1.10;;
68800;SDS011;55784;50.734;7.086;2023-04-24T08:45:52;5.68;;;1.10;;
68800;SDS011;55784;50.734;7.086;2023-04-24T08:48:20;4.10;;;1.00;;
68800;SDS011;55784;50.734;7.086;2023-04-24T08:50:48;4.43;;;1.17;;
68800;SDS011;55784;50.734;7.086;2023-04-24T08:53:17;7.77;;;1.40;;
68800;SDS011;55784;50.734;7.086;2023-04-24T08:55:43;4.85;;;1.30;;
68800;SDS011;55784;50.734;7.086;2023-04-24T08:58:11;5.40;;;1.40;;
68800;SDS011;55784;50.734;7.086;2023-04-24T09:00:41;7.40;;;1.80;;
68800;SDS011;55784;50.734;7.086;2023-04-24T09:03:15;6.18;;;1.70;;
68800;SDS011;55784;50.734;7.086;2023-04-24T09:05:46;6.53;;;1.60;;
68800;SDS011;55784;50.734;7.086;2023-04-24T09:08:15;5.85;;;1.50;;
68800;SDS011;55784;50.734;7.086;2023-04-24T09:10:42;5.50;;;1.90;;
68800;SDS011;55784;50.734;7.086;2023-04-24T09:13:08;7.32;;;1.80;;
68800;SDS011;55784;50.734;7.086;2023-04-24T09:15:35;6.95;;;1.98;;
68800;SDS011;55784;50.734;7.086;2023-04-24T09:18:01;6.20;;;2.07;;
68800;SDS011;55784;50.734;7.086;2023-04-24T09:20:27;9.23;;;2.30;;
68800;SDS011;55784;50.734;7.086;2023-04-24T09:22:56;7.13;;;2.20;;
68800;SDS011;55784;50.734;7.086;2023-04-24T09:25:35;7.95;;;2.40;;
68800;SDS011;55784;50.734;7.086;2023-04-24T09:28:04;7.80;;;2.30;;
68800;SDS011;55784;50.734;7.086;2023-04-24T09:30:31;7.75;;;2.30;;
68800;SDS011;55784;50.734;7.086;2023-04-24T09:33:10;8.90;;;2.27;;
68800;SDS011;55784;50.734;7.086;2023-04-24T09:35:40;7.50;;;2.80;;
68800;SDS011;55784;50.734;7.086;2023-04-24T09:38:05;9.00;;;2.80;;
68800;SDS011;55784;50.734;7.086;2023-04-24T09:40:31;14.07;;;4.63;;
68800;SDS011;55784;50.734;7.086;2023-04-24T09:42:59;15.23;;;5.60;;
68800;SDS011;55784;50.734;7.086;2023-04-24T09:45:27;7.33;;;2.40;;
68800;SDS011;55784;50.734;7.086;2023-04-24T09:47:59;7.00;;;2.30;;
68800;SDS011;55784;50.734;7.086;2023-04-24T09:50:25;11.57;;;3.53;;
68800;SDS011;55784;50.734;7.086;2023-04-24T09:52:57;7.90;;;2.22;;
68800;SDS011;55784;50.734;7.086;2023-04-24T09:55:24;10.60;;;2.22;;
68800;SDS011;55784;50.734;7.086;2023-04-24T09:57:51;6.72;;;1.90;;
68800;SDS011;55784;50.734;7.086;2023-04-24T10:00:31;6.72;;;2.38;;
68800;SDS011;55784;50.734;7.086;2023-04-24T10:02:58;7.38;;;2.00;;
68800;SDS011;55784;50.734;7.086;2023-04-24T10:05:30;7.60;;;1.95;;
68800;SDS011;55784;50.734;7.086;2023-04-24T10:08:01;6.20;;;2.00;;
68800;SDS011;55784;50.734;7.086;2023-04-24T10:10:42;9.73;;;2.10;;
68800;SDS011;55784;50.734;7.086;2023-04-24T10:13:11;8.00;;;2.08;;
68800;SDS011;55784;50.734;7.086;2023-04-24T10:15:41;7.13;;;2.10;;
68800;SDS011;55784;50.734;7.086;2023-04-24T10:18:07;7.20;;;2.20;;
68800;SDS011;55784;50.734;7.086;2023-04-24T10:20:36;7.47;;;2.40;;
68800;SDS011;55784;50.734;7.086;2023-04-24T10:23:02;8.13;;;2.22;;
68800;SDS011;55784;50.734;7.086;2023-04-24T10:25:33;9.43;;;2.47;;
68800;SDS011;55784;50.734;7.086;2023-04-24T10:28:00;8.73;;;2.45;;
68800;SDS011;55784;50.734;7.086;2023-04-24T10:30:33;7.55;;;2.30;;
68800;SDS011;55784;50.734;7.086;2023-04-24T10:33:00;6.22;;;2.10;;
68800;SDS011;55784;50.734;7.086;2023-04-24T10:35:26;8.65;;;2.05;;
68800;SDS011;55784;50.734;7.086;2023-04-24T10:37:59;7.72;;;2.22;;
68800;SDS011;55784;50.734;7.086;2023-04-24T10:40:32;6.95;;;2.00;;
68800;SDS011;55784;50.734;7.086;2023-04-24T10:43:01;6.03;;;1.80;;
68800;SDS011;55784;50.734;7.086;2023-04-24T10:45:27;9.23;;;2.50;;
68800;SDS011;55784;50.734;7.086;2023-04-24T10:48:05;37.20;;;15.27;;
68800;SDS011;55784;50.734;7.086;2023-04-24T10:50:45;10.88;;;3.22;;
68800;SDS011;55784;50.734;7.086;2023-04-24T10:53:12;9.63;;;3.63;;
68800;SDS011;55784;50.734;7.086;2023-04-24T10:55:47;12.05;;;3.00;;
68800;SDS011;55784;50.734;7.086;2023-04-24T10:58:14;8.00;;;2.53;;
68800;SDS011;55784;50.734;7.086;2023-04-24T11:00:41;10.52;;;3.08;;
68800;SDS011;55784;50.734;7.086;2023-04-24T11:03:22;9.75;;;2.70;;
68800;SDS011;55784;50.734;7.086;2023-04-24T11:11:25;11.73;;;3.55;;
68800;SDS011;55784;50.734;7.086;2023-04-24T11:24:27;10.93;;;3.37;;
68800;SDS011;55784;50.734;7.086;2023-04-24T11:26:56;9.57;;;3.42;;
68800;SDS011;55784;50.734;7.086;2023-04-24T11:29:22;11.02;;;4.07;;
68800;SDS011;55784;50.734;7.086;2023-04-24T11:31:52;10.63;;;3.78;;
68800;SDS011;55784;50.734;7.086;2023-04-24T11:34:20;10.90;;;3.30;;
68800;SDS011;55784;50.734;7.086;2023-04-24T11:36:46;10.32;;;3.00;;
68800;SDS011;55784;50.734;7.086;2023-04-24T11:39:12;8.87;;;3.37;;
68800;SDS011;55784;50.734;7.086;2023-04-24T11:41:38;9.05;;;3.03;;
68800;SDS011;55784;50.734;7.086;2023-04-24T11:44:05;9.33;;;2.70;;
68800;SDS011;55784;50.734;7.086;2023-04-24T11:46:32;7.78;;;2.80;;
68800;SDS011;55784;50.734;7.086;2023-04-24T11:48:57;10.48;;;3.35;;
68800;SDS011;55784;50.734;7.086;2023-04-24T11:51:24;8.50;;;3.33;;
68800;SDS011;55784;50.734;7.086;2023-04-24T11:53:51;8.77;;;3.17;;
68800;SDS011;55784;50.734;7.086;2023-04-24T11:56:18;10.15;;;2.85;;
68800;SDS011;55784;50.734;7.086;2023-04-24T11:58:44;7.35;;;2.80;;
68800;SDS011;55784;50.734;7.086;2023-04-24T12:01:10;9.40;;;2.58;;
68800;SDS011;55784;50.734;7.086;2023-04-24T12:03:36;8.20;;;2.47;;
68800;SDS011;55784;50.734;7.086;2023-04-24T12:06:05;8.20;;;3.00;;
68800;SDS011;55784;50.734;7.086;2023-04-24T12:08:32;9.40;;;2.90;;
68800;SDS011;55784;50.734;7.086;2023-04-24T12:10:59;7.45;;;2.50;;
68800;SDS011;55784;50.734;7.086;2023-04-24T12:13:26;10.17;;;2.97;;
68800;SDS011;55784;50.734;7.086;2023-04-24T12:15:51;10.15;;;3.40;;
68800;SDS011;55784;50.734;7.086;2023-04-24T12:18:17;9.03;;;3.37;;
68800;SDS011;55784;50.734;7.086;2023-04-24T12:20:43;9.90;;;3.60;;
68800;SDS011;55784;50.734;7.086;2023-04-24T12:23:08;9.10;;;3.00;;
68800;SDS011;55784;50.734;7.086;2023-04-24T12:25:33;9.80;;;3.70;;
68800;SDS011;55784;50.734;7.086;2023-04-24T12:30:31;9.23;;;3.45;;
68800;SDS011;55784;50.734;7.086;2023-04-24T12:32:58;11.00;;;3.70;;
68800;SDS011;55784;50.734;7.086;2023-04-24T12:35:26;11.73;;;3.50;;
68800;SDS011;55784;50.734;7.086;2023-04-24T12:37:53;9.05;;;3.60;;
68800;SDS011;55784;50.734;7.086;2023-04-24T12:40:19;12.57;;;3.80;;
68800;SDS011;55784;50.734;7.086;2023-04-24T12:42:46;10.55;;;3.92;;
68800;SDS011;55784;50.734;7.086;2023-04-24T12:45:16;13.50;;;4.80;;
68800;SDS011;55784;50.734;7.086;2023-04-24T12:47:43;10.40;;;3.70;;
68800;SDS011;55784;50.734;7.086;2023-04-24T12:50:14;11.75;;;3.97;;
68800;SDS011;55784;50.734;7.086;2023-04-24T12:52:40;9.57;;;3.47;;
68800;SDS011;55784;50.734;7.086;2023-04-24T12:55:06;10.75;;;3.83;;
68800;SDS011;55784;50.734;7.086;2023-04-24T12:57:33;10.10;;;3.88;;
68800;SDS011;55784;50.734;7.086;2023-04-24T13:00:00;10.70;;;3.70;;
68800;SDS011;55784;50.734;7.086;2023-04-24T13:02:26;9.63;;;3.50;;
68800;SDS011;55784;50.734;7.086;2023-04-24T13:04:53;9.20;;;3.50;;
68800;SDS011;55784;50.734;7.086;2023-04-24T13:07:19;10.97;;;3.30;;
68800;SDS011;55784;50.734;7.086;2023-04-24T13:09:45;10.57;;;3.27;;
68800;SDS011;55784;50.734;7.086;2023-04-24T13:12:12;11.02;;;3.22;;
68800;SDS011;55784;50.734;7.086;2023-04-24T13:14:39;7.90;;;3.35;;
68800;SDS011;55784;50.734;7.086;2023-04-24T13:17:04;7.63;;;2.77;;
68800;SDS011;55784;50.734;7.086;2023-04-24T13:19:34;8.43;;;2.80;;
68800;SDS011;55784;50.734;7.086;2023-04-24T13:22:05;7.72;;;2.67;;
68800;SDS011;55784;50.734;7.086;2023-04-24T13:24:31;7.45;;;2.60;;
68800;SDS011;55784;50.734;7.086;2023-04-24T13:26:57;9.00;;;2.50;;
68800;SDS011;55784;50.734;7.086;2023-04-24T13:29:23;7.28;;;2.35;;
68800;SDS011;55784;50.734;7.086;2023-04-24T13:31:52;7.60;;;2.43;;
68800;SDS011;55784;50.734;7.086;2023-04-24T13:34:21;7.97;;;2.70;;
68800;SDS011;55784;50.734;7.086;2023-04-24T13:36:50;9.23;;;2.97;;
68800;SDS011;55784;50.734;7.086;2023-04-24T13:39:17;9.65;;;2.75;;
68800;SDS011;55784;50.734;7.086;2023-04-24T13:41:42;7.43;;;2.67;;
68800;SDS011;55784;50.734;7.086;2023-04-24T13:44:08;10.43;;;2.90;;
68800;SDS011;55784;50.734;7.086;2023-04-24T13:46:33;8.00;;;2.80;;
68800;SDS011;55784;50.734;7.086;2023-04-24T13:48:59;10.90;;;3.63;;
68800;SDS011;55784;50.734;7.086;2023-04-24T13:51:25;8.97;;;3.33;;
68800;SDS011;55784;50.734;7.086;2023-04-24T13:53:52;10.25;;;3.60;;
68800;SDS011;55784;50.734;7.086;2023-04-24T13:56:17;9.02;;;3.10;;
68800;SDS011;55784;50.734;7.086;2023-04-24T13:58:43;7.60;;;2.90;;
68800;SDS011;55784;50.734;7.086;2023-04-24T14:01:08;9.53;;;3.17;;
68800;SDS011;55784;50.734;7.086;2023-04-24T14:03:34;9.00;;;3.10;;
68800;SDS011;55784;50.734;7.086;2023-04-24T14:05:59;10.20;;;3.50;;
68800;SDS011;55784;50.734;7.086;2023-04-24T14:08:24;11.77;;;3.47;;
68800;SDS011;55784;50.734;7.086;2023-04-24T14:10:50;10.77;;;3.77;;
68800;SDS011;55784;50.734;7.086;2023-04-24T14:13:16;10.30;;;4.07;;
68800;SDS011;55784;50.734;7.086;2023-04-24T14:15:41;12.93;;;4.68;;
68800;SDS011;55784;50.734;7.086;2023-04-24T14:18:06;12.70;;;4.70;;
68800;SDS011;55784;50.734;7.086;2023-04-24T14:20:32;14.03;;;4.90;;
68800;SDS011;55784;50.734;7.086;2023-04-24T14:22:57;10.90;;;4.53;;
68800;SDS011;55784;50.734;7.086;2023-04-24T14:25:24;12.65;;;4.03;;
68800;SDS011;55784;50.734;7.086;2023-04-24T14:27:50;12.73;;;4.15;;
68800;SDS011;55784;50.734;7.086;2023-04-24T14:30:15;12.43;;;3.97;;
68800;SDS011;55784;50.734;7.086;2023-04-24T14:32:41;10.20;;;4.00;;
68800;SDS011;55784;50.734;7.086;2023-04-24T14:35:07;11.17;;;3.90;;
68800;SDS011;55784;50.734;7.086;2023-04-24T14:37:32;12.75;;;3.90;;
68800;SDS011;55784;50.734;7.086;2023-04-24T14:39:58;11.33;;;3.70;;
68800;SDS011;55784;50.734;7.086;2023-04-24T14:42:23;11.53;;;3.57;;
68800;SDS011;55784;50.734;7.086;2023-04-24T14:44:49;10.25;;;3.55;;
68800;SDS011;55784;50.734;7.086;2023-04-24T14:47:15;9.10;;;3.27;;
68800;SDS011;55784;50.734;7.086;2023-04-24T14:49:42;9.45;;;3.45;;
68800;SDS011;55784;50.734;7.086;2023-04-24T14:52:08;10.93;;;3.80;;
68800;SDS011;55784;50.734;7.086;2023-04-24T14:54:34;9.03;;;3.03;;
68800;SDS011;55784;50.734;7.086;2023-04-24T14:56:59;7.93;;;3.10;;
68800;SDS011;55784;50.734;7.086;2023-04-24T14:59:26;10.18;;;3.30;;
68800;SDS011;55784;50.734;7.086;2023-04-24T15:01:52;8.68;;;3.42;;
68800;SDS011;55784;50.734;7.086;2023-04-24T15:04:22;9.23;;;3.35;;
68800;SDS011;55784;50.734;7.086;2023-04-24T15:06:48;9.73;;;3.40;;
68800;SDS011;55784;50.734;7.086;2023-04-24T15:09:14;9.57;;;3.53;;
68800;SDS011;55784;50.734;7.086;2023-04-24T15:11:39;9.17;;;3.03;;
68800;SDS011;55784;50.734;7.086;2023-04-24T15:14:05;10.77;;;3.47;;
68800;SDS011;55784;50.734;7.086;2023-04-24T15:16:30;8.90;;;2.90;;
68800;SDS011;55784;50.734;7.086;2023-04-24T15:18:57;8.82;;;3.20;;
68800;SDS011;55784;50.734;7.086;2023-04-24T15:21:22;11.87;;;3.40;;
68800;SDS011;55784;50.734;7.086;2023-04-24T15:23:47;7.43;;;3.00;;
68800;SDS011;55784;50.734;7.086;2023-04-24T15:26:13;8.32;;;3.00;;
68800;SDS011;55784;50.734;7.086;2023-04-24T15:28:38;9.67;;;3.00;;
68800;SDS011;55784;50.734;7.086;2023-04-24T15:31:04;9.53;;;2.80;;
68800;SDS011;55784;50.734;7.086;2023-04-24T15:33:30;7.55;;;2.80;;
68800;SDS011;55784;50.734;7.086;2023-04-24T15:35:55;9.13;;;2.90;;
68800;SDS011;55784;50.734;7.086;2023-04-24T15:38:20;8.43;;;3.10;;
68800;SDS011;55784;50.734;7.086;2023-04-24T15:40:46;9.07;;;3.50;;
68800;SDS011;55784;50.734;7.086;2023-04-24T15:43:11;9.17;;;3.33;;
68800;SDS011;55784;50.734;7.086;2023-04-24T15:45:36;10.40;;;3.60;;
68800;SDS011;55784;50.734;7.086;2023-04-24T15:48:02;7.63;;;3.13;;
68800;SDS011;55784;50.734;7.086;2023-04-24T15:50:27;8.93;;;2.90;;
68800;SDS011;55784;50.734;7.086;2023-04-24T15:52:53;10.07;;;3.00;;
68800;SDS011;55784;50.734;7.086;2023-04-24T15:55:18;9.57;;;3.60;;
68800;SDS011;55784;50.734;7.086;2023-04-24T15:57:44;9.47;;;3.70;;
68800;SDS011;55784;50.734;7.086;2023-04-24T16:00:12;8.77;;;3.20;;
68800;SDS011;55784;50.734;7.086;2023-04-24T16:02:38;9.18;;;3.15;;
68800;SDS011;55784;50.734;7.086;2023-04-24T16:05:16;8.90;;;3.20;;
68800;SDS011;55784;50.734;7.086;2023-04-24T16:07:43;9.50;;;2.88;;
68800;SDS011;55784;50.734;7.086;2023-04-24T16:10:09;10.93;;;3.90;;
68800;SDS011;55784;50.734;7.086;2023-04-24T16:12:35;9.70;;;3.47;;
68800;SDS011;55784;50.734;7.086;2023-04-24T16:15:00;9.82;;;3.65;;
68800;SDS011;55784;50.734;7.086;2023-04-24T16:17:26;8.63;;;3.10;;
68800;SDS011;55784;50.734;7.086;2023-04-24T16:19:54;10.17;;;3.10;;
68800;SDS011;55784;50.734;7.086;2023-04-24T16:22:48;9.50;;;2.90;;
68800;SDS011;55784;50.734;7.086;2023-04-24T16:25:19;8.77;;;3.05;;
68800;SDS011;55784;50.734;7.086;2023-04-24T16:27:45;9.10;;;3.50;;
68800;SDS011;55784;50.734;7.086;2023-04-24T16:30:26;10.45;;;3.47;;